Station Historical Data
Daily Summary for January 28, 2012 Units:  English    Metric   Both
« Previous Day
Next Day »
Daily Weekly Monthly Yearly Custom
  High: Low: Average:
Temperature: 50.6 °F 31.1 °F 42.8 °F
Dew Point: 41.3 °F 15.5 °F 28.2 °F
Humidity: 93% 27% 61%
Wind Speed: 16.0mph 0.0mph 5mph
Wind Gust: 26.0mph - -
Wind- - West
Pressure: 30.38 in 30.04 in -
Precipitation: 0.00 in    
Historical Graphs
 
 
Tabular Data for January 28, 2012
Time Temperature Dew Point Pressure Wind Wind Speed Wind Gust Humidity Rainfall Rate (Hourly) Conditions
00:00 40.9 °F 37.0 °F 30.05 in SSE 1.0 mph 1.0 mph 86% 0.00 in
00:01 40.9 °F 37.0 °F 30.05 in SSE 2.0 mph 2.0 mph 86% 0.00 in
00:06 41.2 °F 37.3 °F 30.05 in ESE 6.0 mph 6.0 mph 86% 0.00 in
00:11 41.7 °F 37.5 °F 30.04 in SE 6.0 mph 7.0 mph 85% 0.00 in
00:16 42.1 °F 37.9 °F 30.04 in SE 4.0 mph 7.0 mph 85% 0.00 in
00:21 42.1 °F 37.9 °F 30.04 in SE 3.0 mph 6.0 mph 85% 0.00 in
00:26 42.1 °F 37.6 °F 30.04 in SE 4.0 mph 5.0 mph 84% 0.00 in
00:31 42.0 °F 37.5 °F 30.04 in SSE 5.0 mph 5.0 mph 84% 0.00 in
00:36 42.0 °F 37.5 °F 30.04 in SE 4.0 mph 9.0 mph 84% 0.00 in
00:41 41.9 °F 37.7 °F 30.04 in SE 4.0 mph 6.0 mph 85% 0.00 in
00:46 41.8 °F 37.6 °F 30.04 in SSE 4.0 mph 5.0 mph 85% 0.00 in
00:51 41.7 °F 37.5 °F 30.05 in SSE 5.0 mph 6.0 mph 85% 0.00 in
00:56 41.6 °F 37.7 °F 30.04 in ESE 5.0 mph 6.0 mph 86% 0.00 in
01:01 41.5 °F 37.6 °F 30.05 in SSE 3.0 mph 5.0 mph 86% 0.00 in
01:06 41.3 °F 37.4 °F 30.05 in SSE 1.0 mph 2.0 mph 86% 0.00 in
01:11 41.0 °F 37.4 °F 30.05 in SSW 1.0 mph 2.0 mph 87% 0.00 in
01:16 40.8 °F 37.5 °F 30.04 in SE 3.0 mph 4.0 mph 88% 0.00 in
01:21 41.0 °F 37.7 °F 30.04 in SSE 4.0 mph 5.0 mph 88% 0.00 in
01:26 40.9 °F 37.6 °F 30.06 in West 2.0 mph 2.0 mph 88% 0.00 in
01:31 40.0 °F 36.5 °F 30.06 in WNW 1.0 mph 2.0 mph 87% 0.00 in
01:36 39.3 °F 36.6 °F 30.06 in Calm   1.0 mph 90% 0.00 in
01:41 39.3 °F 37.2 °F 30.06 in Calm   1.0 mph 92% 0.00 in
01:46 38.9 °F 36.2 °F 30.06 in Calm     90% 0.00 in
01:51 38.4 °F 36.0 °F 30.06 in Calm     91% 0.00 in
01:56 38.4 °F 36.6 °F 30.06 in Calm   1.0 mph 93% 0.00 in
02:02 38.4 °F 36.6 °F 30.05 in SSE 1.0 mph 1.0 mph 93% 0.00 in
02:07 38.5 °F 36.7 °F 30.05 in South 1.0 mph 2.0 mph 93% 0.00 in
02:12 38.8 °F 37.0 °F 30.05 in Calm   1.0 mph 93% 0.00 in
02:17 38.9 °F 37.0 °F 30.05 in Calm   1.0 mph 93% 0.00 in
02:22 38.8 °F 37.0 °F 30.05 in SSE 1.0 mph 1.0 mph 93% 0.00 in
02:27 39.1 °F 37.2 °F 30.05 in SSE 2.0 mph 2.0 mph 93% 0.00 in
02:32 39.2 °F 37.3 °F 30.05 in Calm   1.0 mph 93% 0.00 in
02:37 39.2 °F 37.3 °F 30.05 in SSE 1.0 mph 1.0 mph 93% 0.00 in
02:38 39.3 °F 37.5 °F 30.05 in SSE 1.0 mph 2.0 mph 93% 0.00 in
02:43 39.5 °F 37.7 °F 30.05 in SSE 1.0 mph 2.0 mph 93% 0.00 in
02:48 39.6 °F 37.8 °F 30.06 in SSE 1.0 mph 2.0 mph 93% 0.00 in
02:53 39.9 °F 38.0 °F 30.06 in SSE 2.0 mph 3.0 mph 93% 0.00 in
02:58 40.1 °F 38.2 °F 30.05 in SSE 2.0 mph 3.0 mph 93% 0.00 in
03:03 40.0 °F 37.9 °F 30.06 in SSE 2.0 mph 2.0 mph 92% 0.00 in
03:08 39.8 °F 37.7 °F 30.06 in SSE 2.0 mph 2.0 mph 92% 0.00 in
03:13 39.8 °F 37.7 °F 30.06 in SSE 2.0 mph 3.0 mph 92% 0.00 in
03:18 39.9 °F 37.8 °F 30.06 in SSE 2.0 mph 3.0 mph 92% 0.00 in
03:23 39.7 °F 37.6 °F 30.06 in SSE 2.0 mph 3.0 mph 92% 0.00 in
03:28 39.7 °F 37.6 °F 30.06 in SSE 2.0 mph 3.0 mph 92% 0.00 in
03:33 39.5 °F 37.4 °F 30.06 in SSE 2.0 mph 3.0 mph 92% 0.00 in
03:38 39.6 °F 37.5 °F 30.06 in SSE 2.0 mph 3.0 mph 92% 0.00 in
03:44 39.5 °F 37.4 °F 30.06 in SSE 3.0 mph 3.0 mph 92% 0.00 in
03:49 39.5 °F 37.4 °F 30.06 in South 3.0 mph 3.0 mph 92% 0.00 in
03:54 39.7 °F 37.8 °F 30.06 in South 3.0 mph 4.0 mph 93% 0.00 in
03:59 39.7 °F 37.6 °F 30.06 in SSE 3.0 mph 3.0 mph 92% 0.00 in
04:04 39.8 °F 37.7 °F 30.06 in SSE 2.0 mph 3.0 mph 92% 0.00 in
04:09 39.9 °F 37.8 °F 30.06 in SSE 3.0 mph 3.0 mph 92% 0.00 in
04:14 40.0 °F 38.1 °F 30.06 in SSE 2.0 mph 3.0 mph 93% 0.00 in
04:19 40.0 °F 37.9 °F 30.06 in SSE 2.0 mph 3.0 mph 92% 0.00 in
04:24 40.1 °F 38.2 °F 30.06 in SSE 2.0 mph 3.0 mph 93% 0.00 in
04:29 40.3 °F 38.4 °F 30.06 in SSE 3.0 mph 3.0 mph 93% 0.00 in
04:34 40.4 °F 38.5 °F 30.06 in SE 3.0 mph 4.0 mph 93% 0.00 in
04:39 40.4 °F 38.3 °F 30.06 in SSE 3.0 mph 3.0 mph 92% 0.00 in
04:44 40.3 °F 38.2 °F 30.06 in SSE 2.0 mph 5.0 mph 92% 0.00 in
04:49 40.2 °F 38.1 °F 30.06 in SE 2.0 mph 4.0 mph 92% 0.00 in
04:54 40.0 °F 37.9 °F 30.06 in SSE 3.0 mph 4.0 mph 92% 0.00 in
04:59 39.5 °F 37.1 °F 30.06 in SSE 3.0 mph 3.0 mph 91% 0.00 in
05:04 39.2 °F 37.1 °F 30.06 in SSE 3.0 mph 3.0 mph 92% 0.00 in
05:09 39.1 °F 37.2 °F 30.06 in SSE 2.0 mph 4.0 mph 93% 0.00 in
05:14 38.9 °F 37.0 °F 30.06 in SSE 4.0 mph 4.0 mph 93% 0.00 in
05:19 39.2 °F 37.3 °F 30.06 in SSE 3.0 mph 4.0 mph 93% 0.00 in
05:24 39.4 °F 37.5 °F 30.06 in SSE 3.0 mph 5.0 mph 93% 0.00 in
05:29 39.7 °F 37.8 °F 30.06 in South 3.0 mph 4.0 mph 93% 0.00 in
05:34 40.0 °F 38.1 °F 30.06 in SSE 3.0 mph 5.0 mph 93% 0.00 in
05:39 40.2 °F 38.1 °F 30.06 in South 3.0 mph 5.0 mph 92% 0.00 in
05:44 40.5 °F 38.4 °F 30.06 in South 3.0 mph 4.0 mph 92% 0.00 in
05:47 40.6 °F 38.5 °F 30.06 in SSE 4.0 mph 5.0 mph 92% 0.00 in
05:52 40.8 °F 38.7 °F 30.07 in SSE 3.0 mph 5.0 mph 92% 0.00 in
05:57 40.9 °F 38.5 °F 30.07 in South 3.0 mph 5.0 mph 91% 0.00 in
06:02 41.1 °F 38.7 °F 30.07 in SSE 2.0 mph 4.0 mph 91% 0.00 in
06:07 41.2 °F 38.8 °F 30.07 in SE 1.0 mph 4.0 mph 91% 0.00 in
06:12 41.3 °F 38.6 °F 30.07 in SSE 3.0 mph 4.0 mph 90% 0.00 in
06:17 41.4 °F 38.7 °F 30.07 in SSE 1.0 mph 3.0 mph 90% 0.00 in
06:22 41.2 °F 38.5 °F 30.07 in SSE 1.0 mph 4.0 mph 90% 0.00 in
06:27 41.1 °F 38.4 °F 30.08 in SSE 2.0 mph 3.0 mph 90% 0.00 in
06:32 41.0 °F 38.3 °F 30.08 in SE 1.0 mph 3.0 mph 90% 0.00 in
06:37 40.8 °F 38.1 °F 30.08 in SSW 1.0 mph 3.0 mph 90% 0.00 in
06:42 40.9 °F 38.5 °F 30.08 in SSW 2.0 mph 3.0 mph 91% 0.00 in
06:47 41.0 °F 38.6 °F 30.09 in South 1.0 mph 2.0 mph 91% 0.00 in
06:52 41.2 °F 38.5 °F 30.09 in South 1.0 mph 2.0 mph 90% 0.00 in
06:57 41.3 °F 38.6 °F 30.10 in SW 1.0 mph 2.0 mph 90% 0.00 in
07:02 41.3 °F 38.3 °F 30.10 in SE 1.0 mph 1.0 mph 89% 0.00 in
07:07 41.3 °F 38.3 °F 30.10 in South 2.0 mph 3.0 mph 89% 0.00 in
07:12 41.3 °F 38.3 °F 30.11 in SW 1.0 mph 2.0 mph 89% 0.00 in
07:17 41.1 °F 38.1 °F 30.11 in SSW 2.0 mph 3.0 mph 89% 0.00 in
07:22 40.9 °F 37.6 °F 30.11 in SW 3.0 mph 4.0 mph 88% 0.00 in
07:27 40.9 °F 37.9 °F 30.11 in WSW 2.0 mph 3.0 mph 89% 0.00 in
07:32 40.9 °F 37.9 °F 30.11 in SW 2.0 mph 3.0 mph 89% 0.00 in
07:38 40.9 °F 37.9 °F 30.12 in WSW 2.0 mph 3.0 mph 89% 0.00 in
07:43 40.8 °F 37.8 °F 30.12 in SW 1.0 mph 2.0 mph 89% 0.00 in
07:48 40.7 °F 37.7 °F 30.13 in SW 1.0 mph 2.0 mph 89% 0.00 in
07:53 40.7 °F 38.0 °F 30.13 in SW 1.0 mph 2.0 mph 90% 0.00 in
07:58 40.8 °F 38.1 °F 30.13 in WSW 1.0 mph 4.0 mph 90% 0.00 in
08:03 41.0 °F 38.3 °F 30.13 in West 2.0 mph 3.0 mph 90% 0.00 in
08:08 41.2 °F 38.2 °F 30.14 in WSW 2.0 mph 4.0 mph 89% 0.00 in
08:13 41.3 °F 38.3 °F 30.14 in West 1.0 mph 4.0 mph 89% 0.00 in
08:18 41.4 °F 38.4 °F 30.14 in WNW 2.0 mph 3.0 mph 89% 0.00 in
08:23 41.4 °F 38.4 °F 30.15 in West 3.0 mph 4.0 mph 89% 0.00 in
08:28 41.6 °F 38.3 °F 30.15 in WNW 3.0 mph 5.0 mph 88% 0.00 in
08:33 41.8 °F 38.5 °F 30.15 in West 5.0 mph 6.0 mph 88% 0.00 in
08:38 42.3 °F 39.0 °F 30.16 in WNW 5.0 mph 8.0 mph 88% 0.00 in
08:43 42.7 °F 39.1 °F 30.16 in WNW 8.0 mph 10.0 mph 87% 0.00 in
08:48 42.9 °F 39.0 °F 30.16 in NW 9.0 mph 13.0 mph 86% 0.00 in
08:53 43.1 °F 39.5 °F 30.17 in WNW 6.0 mph 12.0 mph 87% 0.00 in
08:58 43.3 °F 39.7 °F 30.17 in WNW 7.0 mph 11.0 mph 87% 0.00 in
09:03 43.5 °F 39.9 °F 30.17 in NW 7.0 mph 12.0 mph 87% 0.00 in
09:08 43.5 °F 39.6 °F 30.17 in NNW 3.0 mph 9.0 mph 86% 0.00 in
09:13 43.9 °F 40.3 °F 30.17 in NW 7.0 mph 7.0 mph 87% 0.00 in
09:18 44.4 °F 40.5 °F 30.17 in NW 6.0 mph 10.0 mph 86% 0.00 in
09:23 44.8 °F 40.9 °F 30.17 in NW 5.0 mph 11.0 mph 86% 0.00 in
09:28 45.1 °F 40.9 °F 30.18 in NNW 10.0 mph 13.0 mph 85% 0.00 in
09:33 45.4 °F 41.2 °F 30.18 in WNW 9.0 mph 13.0 mph 85% 0.00 in
09:38 45.8 °F 41.2 °F 30.18 in WNW 9.0 mph 18.0 mph 84% 0.00 in
09:43 46.0 °F 41.1 °F 30.18 in WNW 8.0 mph 16.0 mph 83% 0.00 in
09:48 46.2 °F 41.3 °F 30.19 in NW 6.0 mph 12.0 mph 83% 0.00 in
09:53 46.3 °F 41.1 °F 30.19 in NNW 9.0 mph 13.0 mph 82% 0.00 in
09:58 46.5 °F 41.0 °F 30.20 in NNW 12.0 mph 15.0 mph 81% 0.00 in
10:04 46.6 °F 40.1 °F 30.21 in NW 13.0 mph 22.0 mph 78% 0.00 in
10:09 46.8 °F 39.3 °F 30.21 in NNW 12.0 mph 18.0 mph 75% 0.00 in
10:14 47.1 °F 39.2 °F 30.21 in NNW 8.0 mph 18.0 mph 74% 0.00 in
10:19 47.1 °F 38.9 °F 30.22 in NW 9.0 mph 18.0 mph 73% 0.00 in
10:24 47.1 °F 38.2 °F 30.22 in NW 15.0 mph 18.0 mph 71% 0.00 in
10:29 47.2 °F 36.8 °F 30.23 in NW 13.0 mph 18.0 mph 67% 0.00 in
10:34 47.2 °F 36.8 °F 30.23 in NW 11.0 mph 18.0 mph 67% 0.00 in
10:39 47.5 °F 37.1 °F 30.24 in NW 10.0 mph 16.0 mph 67% 0.00 in
10:44 47.2 °F 36.0 °F 30.24 in NW 12.0 mph 24.0 mph 65% 0.00 in
10:49 47.3 °F 35.4 °F 30.24 in NNW 12.0 mph 20.0 mph 63% 0.00 in
10:54 47.1 °F 30.4 °F 30.25 in NW 16.0 mph 26.0 mph 52% 0.00 in
10:59 47.2 °F 31.9 °F 30.25 in NW 14.0 mph 20.0 mph 55% 0.00 in
11:04 47.5 °F 32.6 °F 30.25 in NNW 14.0 mph 21.0 mph 56% 0.00 in
11:09 47.4 °F 32.1 °F 30.25 in NNW 10.0 mph 18.0 mph 55% 0.00 in
11:14 47.8 °F 31.5 °F 30.26 in North 11.0 mph 16.0 mph 53% 0.00 in
11:19 47.9 °F 30.7 °F 30.26 in NNW 15.0 mph 18.0 mph 51% 0.00 in
11:24 47.8 °F 30.6 °F 30.26 in NNW 16.0 mph 20.0 mph 51% 0.00 in
11:29 47.9 °F 32.1 °F 30.26 in NW 13.0 mph 17.0 mph 54% 0.00 in
11:34 48.1 °F 32.3 °F 30.26 in NNW 11.0 mph 14.0 mph 54% 0.00 in
11:39 48.4 °F 31.6 °F 30.27 in North 8.0 mph 14.0 mph 52% 0.00 in
11:44 48.6 °F 30.3 °F 30.27 in NNW 12.0 mph 17.0 mph 49% 0.00 in
11:49 48.5 °F 27.6 °F 30.27 in NNW 14.0 mph 16.0 mph 44% 0.00 in
11:54 48.5 °F 28.7 °F 30.27 in NW 8.0 mph 14.0 mph 46% 0.00 in
11:59 48.5 °F 25.9 °F 30.27 in NW 11.0 mph 20.0 mph 41% 0.00 in
12:04 48.3 °F 23.3 °F 30.28 in NNW 9.0 mph 20.0 mph 37% 0.00 in
12:09 48.3 °F 24.5 °F 30.28 in NNW 11.0 mph 17.0 mph 39% 0.00 in
12:14 48.1 °F 24.9 °F 30.28 in NNW 13.0 mph 16.0 mph 40% 0.00 in
12:19 48.6 °F 25.4 °F 30.28 in NW 13.0 mph 20.0 mph 40% 0.00 in
12:24 48.9 °F 25.0 °F 30.27 in NNE 15.0 mph 16.0 mph 39% 0.00 in
12:29 48.9 °F 25.7 °F 30.27 in NW 13.0 mph 17.0 mph 40% 0.00 in
12:34 48.8 °F 24.3 °F 30.27 in NW 10.0 mph 19.0 mph 38% 0.00 in
12:39 48.7 °F 25.5 °F 30.27 in North 8.0 mph 18.0 mph 40% 0.00 in
12:45 49.4 °F 25.5 °F 30.27 in NW 12.0 mph 18.0 mph 39% 0.00 in
12:50 49.5 °F 25.0 °F 30.27 in NW 13.0 mph 20.0 mph 38% 0.00 in
12:55 49.1 °F 23.3 °F 30.27 in North 8.0 mph 21.0 mph 36% 0.00 in
13:00 49.2 °F 23.4 °F 30.27 in NNW 7.0 mph 15.0 mph 36% 0.00 in
13:05 49.5 °F 25.0 °F 30.26 in NNW 13.0 mph 15.0 mph 38% 0.00 in
13:10 49.6 °F 24.4 °F 30.27 in NW 8.0 mph 11.0 mph 37% 0.00 in
13:15 49.5 °F 23.0 °F 30.27 in NW 14.0 mph 18.0 mph 35% 0.00 in
13:20 49.0 °F 21.9 °F 30.27 in NW 11.0 mph 17.0 mph 34% 0.00 in
13:25 49.5 °F 22.3 °F 30.27 in NW 15.0 mph 16.0 mph 34% 0.00 in
13:30 49.3 °F 20.0 °F 30.26 in NNW 11.0 mph 16.0 mph 31% 0.00 in
13:35 49.4 °F 21.5 °F 30.26 in NNW 11.0 mph 13.0 mph 33% 0.00 in
13:40 49.4 °F 21.5 °F 30.26 in NW 9.0 mph 15.0 mph 33% 0.00 in
13:45 49.7 °F 24.5 °F 30.27 in NW 10.0 mph 17.0 mph 37% 0.00 in
13:50 49.7 °F 21.8 °F 30.26 in NW 11.0 mph 16.0 mph 33% 0.00 in
13:55 49.5 °F 20.1 °F 30.27 in WNW 9.0 mph 20.0 mph 31% 0.00 in
14:00 49.7 °F 18.8 °F 30.27 in WNW 12.0 mph 18.0 mph 29% 0.00 in
14:05 49.6 °F 17.9 °F 30.27 in NNW 13.0 mph 18.0 mph 28% 0.00 in
14:10 49.5 °F 20.9 °F 30.26 in NNW 12.0 mph 17.0 mph 32% 0.00 in
14:15 49.7 °F 21.1 °F 30.27 in NNE 10.0 mph 16.0 mph 32% 0.00 in
14:20 49.8 °F 20.4 °F 30.27 in NNW 11.0 mph 14.0 mph 31% 0.00 in
14:25 49.9 °F 20.5 °F 30.27 in NNW 6.0 mph 11.0 mph 31% 0.00 in
14:30 50.1 °F 20.7 °F 30.27 in NNW 9.0 mph 13.0 mph 31% 0.00 in
14:35 50.1 °F 22.1 °F 30.27 in NNW 10.0 mph 11.0 mph 33% 0.00 in
14:40 49.9 °F 22.0 °F 30.27 in NNW 12.0 mph 12.0 mph 33% 0.00 in
14:45 50.3 °F 21.6 °F 30.27 in NNW 8.0 mph 11.0 mph 32% 0.00 in
14:47 50.4 °F 20.1 °F 30.27 in NW 5.0 mph 11.0 mph 30% 0.00 in
14:52 50.6 °F 19.5 °F 30.27 in NW 8.0 mph 14.0 mph 29% 0.00 in
14:57 50.5 °F 18.6 °F 30.28 in NNW 9.0 mph 15.0 mph 28% 0.00 in
15:02 50.1 °F 17.4 °F 30.28 in WNW 9.0 mph 13.0 mph 27% 0.00 in
15:07 49.5 °F 19.4 °F 30.28 in NNE 7.0 mph 14.0 mph 30% 0.00 in
15:12 49.6 °F 18.7 °F 30.28 in WNW 5.0 mph 10.0 mph 29% 0.00 in
15:17 49.5 °F 17.8 °F 30.28 in NNW 7.0 mph 12.0 mph 28% 0.00 in
15:22 49.5 °F 16.9 °F 30.28 in NW 9.0 mph 11.0 mph 27% 0.00 in
15:27 49.2 °F 18.3 °F 30.28 in NW 8.0 mph 12.0 mph 29% 0.00 in
15:32 48.7 °F 16.2 °F 30.29 in NNW 12.0 mph 15.0 mph 27% 0.00 in
15:37 48.3 °F 17.5 °F 30.29 in NNW 11.0 mph 12.0 mph 29% 0.00 in
15:42 48.0 °F 17.3 °F 30.29 in NNW 9.0 mph 13.0 mph 29% 0.00 in
15:47 47.9 °F 18.7 °F 30.29 in WNW 13.0 mph 13.0 mph 31% 0.00 in
15:52 47.7 °F 16.2 °F 30.29 in NNW 5.0 mph 10.0 mph 28% 0.00 in
15:57 47.8 °F 19.4 °F 30.30 in NW 6.0 mph 6.0 mph 32% 0.00 in
16:02 47.9 °F 18.0 °F 30.30 in NW 10.0 mph 11.0 mph 30% 0.00 in
16:07 48.0 °F 18.8 °F 30.30 in WNW 5.0 mph 9.0 mph 31% 0.00 in
16:12 48.0 °F 17.3 °F 30.30 in NNW 6.0 mph 9.0 mph 29% 0.00 in
16:17 47.9 °F 18.7 °F 30.30 in NNW 3.0 mph 8.0 mph 31% 0.00 in
16:22 47.9 °F 18.0 °F 30.30 in NNW 5.0 mph 9.0 mph 30% 0.00 in
16:27 47.9 °F 19.5 °F 30.31 in NW 6.0 mph 12.0 mph 32% 0.00 in
16:32 47.9 °F 19.5 °F 30.31 in WNW 4.0 mph 7.0 mph 32% 0.00 in
16:37 48.1 °F 19.6 °F 30.31 in NW 5.0 mph 6.0 mph 32% 0.00 in
16:42 48.3 °F 18.3 °F 30.31 in NW 8.0 mph 9.0 mph 30% 0.00 in
16:47 48.3 °F 20.5 °F 30.31 in NW 7.0 mph 8.0 mph 33% 0.00 in
16:52 48.0 °F 19.6 °F 30.31 in NNW 7.0 mph 7.0 mph 32% 0.00 in
16:58 47.8 °F 20.8 °F 30.31 in North 7.0 mph 10.0 mph 34% 0.00 in
17:03 47.7 °F 20.7 °F 30.31 in NW 7.0 mph 8.0 mph 34% 0.00 in
17:08 47.6 °F 19.9 °F 30.31 in NW 6.0 mph 8.0 mph 33% 0.00 in
17:13 47.4 °F 19.8 °F 30.31 in NW 3.0 mph 8.0 mph 33% 0.00 in
17:18 47.0 °F 16.4 °F 30.31 in NW 5.0 mph 9.0 mph 29% 0.00 in
17:23 46.5 °F 16.0 °F 30.31 in NW 8.0 mph 10.0 mph 29% 0.00 in
17:28 46.2 °F 15.7 °F 30.32 in WNW 7.0 mph 12.0 mph 29% 0.00 in
17:33 46.0 °F 15.5 °F 30.32 in NW 7.0 mph 13.0 mph 29% 0.00 in
17:38 45.7 °F 16.1 °F 30.32 in NW 4.0 mph 8.0 mph 30% 0.00 in
17:43 45.4 °F 15.8 °F 30.32 in NW 6.0 mph 7.0 mph 30% 0.00 in
17:48 45.3 °F 17.2 °F 30.32 in NNW 3.0 mph 9.0 mph 32% 0.00 in
17:53 45.0 °F 16.9 °F 30.33 in WNW 5.0 mph 7.0 mph 32% 0.00 in
17:58 44.9 °F 17.6 °F 30.33 in WNW 5.0 mph 9.0 mph 33% 0.00 in
18:03 44.7 °F 18.1 °F 30.33 in NW 9.0 mph 9.0 mph 34% 0.00 in
18:08 44.5 °F 18.6 °F 30.33 in NW 5.0 mph 6.0 mph 35% 0.00 in
18:13 44.1 °F 17.5 °F 30.33 in NW 4.0 mph 10.0 mph 34% 0.00 in
18:18 43.8 °F 18.0 °F 30.33 in NW 4.0 mph 6.0 mph 35% 0.00 in
18:23 43.3 °F 17.5 °F 30.34 in WNW 3.0 mph 7.0 mph 35% 0.00 in
18:28 43.3 °F 16.1 °F 30.34 in NW 2.0 mph 7.0 mph 33% 0.00 in
18:33 43.0 °F 17.2 °F 30.34 in NW 3.0 mph 4.0 mph 35% 0.00 in
18:38 42.7 °F 17.0 °F 30.34 in NW 3.0 mph 6.0 mph 35% 0.00 in
18:43 42.4 °F 16.7 °F 30.34 in NW 3.0 mph 4.0 mph 35% 0.00 in
18:49 42.2 °F 17.2 °F 30.34 in NW 3.0 mph 6.0 mph 36% 0.00 in
18:53 41.8 °F 17.5 °F 30.34 in NW 4.0 mph 5.0 mph 37% 0.00 in
18:59 41.6 °F 16.6 °F 30.35 in NW 4.0 mph 6.0 mph 36% 0.00 in
19:04 41.4 °F 17.1 °F 30.34 in NW 4.0 mph 4.0 mph 37% 0.00 in
19:09 41.3 °F 17.0 °F 30.35 in NW 3.0 mph 6.0 mph 37% 0.00 in
19:14 41.2 °F 16.9 °F 30.35 in NW 3.0 mph 5.0 mph 37% 0.00 in
19:19 41.1 °F 16.8 °F 30.35 in NW 3.0 mph 5.0 mph 37% 0.00 in
19:24 41.0 °F 16.7 °F 30.35 in NNW 2.0 mph 3.0 mph 37% 0.00 in
19:29 40.9 °F 16.6 °F 30.35 in NW 3.0 mph 4.0 mph 37% 0.00 in
19:34 40.8 °F 17.2 °F 30.35 in NW 2.0 mph 4.0 mph 38% 0.00 in
19:39 40.6 °F 17.0 °F 30.35 in NW 3.0 mph 4.0 mph 38% 0.00 in
19:44 40.5 °F 16.9 °F 30.35 in NW 3.0 mph 4.0 mph 38% 0.00 in
19:49 40.3 °F 17.3 °F 30.35 in NW 2.0 mph 3.0 mph 39% 0.00 in
19:54 40.1 °F 17.1 °F 30.35 in NW 2.0 mph 4.0 mph 39% 0.00 in
19:59 39.8 °F 17.5 °F 30.35 in NNW 3.0 mph 3.0 mph 40% 0.00 in
20:04 39.8 °F 16.9 °F 30.35 in NNW 3.0 mph 4.0 mph 39% 0.00 in
20:09 39.8 °F 16.9 °F 30.36 in NW 3.0 mph 3.0 mph 39% 0.00 in
20:14 39.7 °F 16.8 °F 30.36 in NNW 2.0 mph 2.0 mph 39% 0.00 in
20:19 39.6 °F 16.7 °F 30.36 in NNW 3.0 mph 4.0 mph 39% 0.00 in
20:24 39.3 °F 17.0 °F 30.36 in NNW 3.0 mph 4.0 mph 40% 0.00 in
20:29 39.2 °F 16.9 °F 30.36 in NNW 2.0 mph 4.0 mph 40% 0.00 in
20:34 39.0 °F 16.7 °F 30.36 in NNW 3.0 mph 4.0 mph 40% 0.00 in
20:39 38.8 °F 17.1 °F 30.36 in NNW 3.0 mph 5.0 mph 41% 0.00 in
20:44 38.7 °F 17.0 °F 30.36 in North 4.0 mph 5.0 mph 41% 0.00 in
20:49 38.6 °F 17.0 °F 30.36 in NNW 3.0 mph 4.0 mph 41% 0.00 in
20:54 38.5 °F 16.3 °F 30.36 in NNW 3.0 mph 4.0 mph 40% 0.00 in
20:59 38.4 °F 16.8 °F 30.36 in NNW 2.0 mph 5.0 mph 41% 0.00 in
21:04 38.2 °F 16.6 °F 30.36 in NNW 2.0 mph 4.0 mph 41% 0.00 in
21:09 38.0 °F 17.0 °F 30.35 in North 2.0 mph 3.0 mph 42% 0.00 in
21:14 37.7 °F 17.2 °F 30.35 in North 2.0 mph 3.0 mph 43% 0.00 in
21:19 37.5 °F 17.0 °F 30.35 in North 1.0 mph 3.0 mph 43% 0.00 in
21:24 37.2 °F 16.8 °F 30.35 in North 2.0 mph 2.0 mph 43% 0.00 in
21:29 37.2 °F 16.8 °F 30.35 in NNW 2.0 mph 2.0 mph 43% 0.00 in
21:34 37.3 °F 16.3 °F 30.35 in NNW 2.0 mph 2.0 mph 42% 0.00 in
21:40 37.0 °F 16.6 °F 30.35 in NNW 2.0 mph 2.0 mph 43% 0.00 in
21:45 36.8 °F 16.4 °F 30.36 in NNW 2.0 mph 3.0 mph 43% 0.00 in
21:50 36.6 °F 16.8 °F 30.36 in NNW 2.0 mph 3.0 mph 44% 0.00 in
21:55 36.1 °F 16.8 °F 30.36 in NNW 2.0 mph 2.0 mph 45% 0.00 in
22:00 35.6 °F 17.4 °F 30.37 in NNW 3.0 mph 4.0 mph 47% 0.00 in
22:05 35.6 °F 17.4 °F 30.37 in NNW 3.0 mph 4.0 mph 47% 0.00 in
22:10 35.7 °F 17.5 °F 30.37 in NNW 3.0 mph 3.0 mph 47% 0.00 in
22:15 35.8 °F 17.6 °F 30.37 in NNW 3.0 mph 3.0 mph 47% 0.00 in
22:20 35.9 °F 17.6 °F 30.37 in NNW 3.0 mph 3.0 mph 47% 0.00 in
22:25 35.9 °F 17.6 °F 30.37 in North 2.0 mph 4.0 mph 47% 0.00 in
22:30 35.8 °F 17.6 °F 30.37 in NNE 1.0 mph 2.0 mph 47% 0.00 in
22:36 35.7 °F 17.5 °F 30.37 in North 2.0 mph 2.0 mph 47% 0.00 in
22:41 35.7 °F 18.0 °F 30.37 in NNW 2.0 mph 3.0 mph 48% 0.00 in
22:46 35.7 °F 17.5 °F 30.37 in NNW 2.0 mph 3.0 mph 47% 0.00 in
22:51 35.6 °F 17.9 °F 30.37 in NNW 3.0 mph 3.0 mph 48% 0.00 in
22:56 35.5 °F 17.8 °F 30.37 in NNW 3.0 mph 4.0 mph 48% 0.00 in
23:01 35.4 °F 17.7 °F 30.37 in NNW 3.0 mph 4.0 mph 48% 0.00 in
23:06 35.4 °F 18.1 °F 30.37 in NNW 3.0 mph 3.0 mph 49% 0.00 in
23:11 35.2 °F 18.0 °F 30.38 in NNW 2.0 mph 4.0 mph 49% 0.00 in
23:16 35.1 °F 18.4 °F 30.37 in NNW 2.0 mph 3.0 mph 50% 0.00 in
23:21 35.1 °F 18.4 °F 30.38 in NNW 2.0 mph 3.0 mph 50% 0.00 in
23:26 34.9 °F 18.2 °F 30.37 in NNW 1.0 mph 3.0 mph 50% 0.00 in
23:31 34.5 °F 18.7 °F 30.38 in Calm   1.0 mph 52% 0.00 in
23:36 33.9 °F 19.0 °F 30.38 in NNW 1.0 mph 1.0 mph 54% 0.00 in
23:41 33.7 °F 18.8 °F 30.38 in Calm     54% 0.00 in
23:46 33.2 °F 18.4 °F 30.38 in Calm     54% 0.00 in
23:51 32.3 °F 17.5 °F 30.38 in Calm     54% 0.00 in
23:56 31.1 °F 16.8 °F 30.38 in Calm     55% 0.00 in
Compliments of Weather Underground